createdAt,value
2022-10-03T00:02:10.045Z,15.55
2022-10-03T00:04:36.243Z,15.53
2022-10-03T00:07:02.567Z,15.50
2022-10-03T00:09:28.914Z,15.47
2022-10-03T00:11:55.277Z,15.44
2022-10-03T00:14:21.598Z,15.42
2022-10-03T00:16:47.979Z,15.38
2022-10-03T00:19:14.422Z,15.36
2022-10-03T00:21:41.321Z,15.35
2022-10-03T00:24:07.066Z,15.34
2022-10-03T00:26:33.412Z,15.34
2022-10-03T00:28:59.756Z,15.33
2022-10-03T00:31:26.279Z,15.32
2022-10-03T00:33:52.439Z,15.30
2022-10-03T00:36:18.784Z,15.28
2022-10-03T00:38:45.101Z,15.26
2022-10-03T00:41:11.444Z,15.24
2022-10-03T00:43:37.816Z,15.18
2022-10-03T00:46:04.242Z,15.13
2022-10-03T00:48:30.492Z,15.10
2022-10-03T00:50:56.844Z,15.09
2022-10-03T00:53:23.150Z,15.04
2022-10-03T00:55:49.495Z,14.99
2022-10-03T00:58:15.818Z,14.91
2022-10-03T01:00:42.179Z,14.84
2022-10-03T01:03:08.475Z,14.80
2022-10-03T01:05:34.800Z,14.74
2022-10-03T01:08:01.140Z,14.69
2022-10-03T01:10:27.462Z,14.65
2022-10-03T01:12:53.843Z,14.66
2022-10-03T01:15:20.173Z,14.69
2022-10-03T01:17:46.491Z,14.71
2022-10-03T01:20:12.836Z,14.72
2022-10-03T01:22:39.178Z,14.76
2022-10-03T01:25:05.516Z,14.73
2022-10-03T01:27:31.881Z,14.69
2022-10-03T01:29:58.200Z,14.61
2022-10-03T01:32:24.538Z,14.55
2022-10-03T01:34:50.859Z,14.53
2022-10-03T01:37:17.199Z,14.52
2022-10-03T01:39:43.517Z,14.52
2022-10-03T01:42:09.861Z,14.52
2022-10-03T01:44:36.180Z,14.54
2022-10-03T01:47:02.522Z,14.54
2022-10-03T01:49:28.856Z,14.53
2022-10-03T01:51:55.170Z,14.51
2022-10-03T01:54:21.491Z,14.50
2022-10-03T01:56:47.861Z,14.50
2022-10-03T01:59:14.202Z,14.51
2022-10-03T02:01:40.843Z,14.50
2022-10-03T02:04:06.883Z,14.49
2022-10-03T02:06:33.200Z,14.48
2022-10-03T02:08:59.525Z,14.48
2022-10-03T02:11:25.845Z,14.47
2022-10-03T02:13:52.209Z,14.44
2022-10-03T02:16:18.576Z,14.43
2022-10-03T02:18:44.886Z,14.42
2022-10-03T02:21:11.224Z,14.40
2022-10-03T02:23:37.565Z,14.38
2022-10-03T02:26:03.882Z,14.36
2022-10-03T02:28:30.284Z,14.35
2022-10-03T02:30:56.540Z,14.36
2022-10-03T02:33:22.887Z,14.37
2022-10-03T02:35:49.221Z,14.37
2022-10-03T02:38:15.591Z,14.36
2022-10-03T02:40:41.926Z,14.35
2022-10-03T02:43:08.278Z,14.34
2022-10-03T02:45:34.653Z,14.32
2022-10-03T02:48:27.092Z,14.31
2022-10-03T02:50:27.312Z,14.30
2022-10-03T02:52:53.661Z,14.27
2022-10-03T02:55:19.998Z,14.25
2022-10-03T02:57:46.339Z,14.25
2022-10-03T03:00:12.659Z,14.23
2022-10-03T03:02:38.981Z,14.22
2022-10-03T03:05:05.299Z,14.20
2022-10-03T03:07:31.645Z,14.21
2022-10-03T03:09:57.966Z,14.19
2022-10-03T03:12:24.306Z,14.18
2022-10-03T03:14:50.621Z,14.15
2022-10-03T03:17:16.966Z,14.13
2022-10-03T03:19:43.319Z,14.12
2022-10-03T03:22:09.665Z,14.13
2022-10-03T03:24:35.999Z,14.12
2022-10-03T03:27:02.340Z,14.13
2022-10-03T03:29:28.657Z,14.12
2022-10-03T03:31:55.065Z,14.10
2022-10-03T03:34:21.321Z,14.09
2022-10-03T03:36:47.661Z,14.06
2022-10-03T03:39:13.997Z,14.06
2022-10-03T03:41:40.578Z,14.08
2022-10-03T03:44:06.670Z,14.06
2022-10-03T03:46:33.022Z,14.05
2022-10-03T03:48:59.362Z,14.05
2022-10-03T03:51:25.682Z,14.04
2022-10-03T03:53:52.015Z,14.04
2022-10-03T03:56:18.359Z,14.03
2022-10-03T03:58:44.702Z,14.01
2022-10-03T04:01:11.087Z,14.01
2022-10-03T04:03:37.358Z,14.02
2022-10-03T04:06:03.677Z,14.03
2022-10-03T04:08:30.023Z,14.03
2022-10-03T04:10:56.354Z,14.02
2022-10-03T04:13:22.697Z,14.02
2022-10-03T04:15:49.040Z,14.02
2022-10-03T04:18:15.355Z,14.00
2022-10-03T04:20:41.691Z,13.98
2022-10-03T04:23:08.055Z,14.00
2022-10-03T04:25:34.442Z,14.01
2022-10-03T04:28:00.852Z,14.01
2022-10-03T04:30:27.098Z,14.01
2022-10-03T04:32:53.430Z,14.01
2022-10-03T04:35:19.747Z,14.01
2022-10-03T04:37:46.108Z,14.04
2022-10-03T04:40:12.486Z,14.18
2022-10-03T04:42:38.799Z,14.43
2022-10-03T04:45:05.121Z,14.65
2022-10-03T04:47:31.468Z,14.76
2022-10-03T04:49:57.823Z,14.81
2022-10-03T04:52:24.170Z,14.85
2022-10-03T04:54:50.507Z,14.86
2022-10-03T04:57:16.891Z,14.85
2022-10-03T04:59:43.208Z,14.86
2022-10-03T05:02:09.620Z,14.85
2022-10-03T05:04:35.854Z,14.73
2022-10-03T05:07:02.203Z,14.56
2022-10-03T05:09:28.514Z,14.46
2022-10-03T05:11:54.833Z,14.40
2022-10-03T05:14:21.157Z,14.37
2022-10-03T05:16:47.586Z,14.35
2022-10-03T05:19:13.842Z,14.33
2022-10-03T05:21:40.657Z,14.33
2022-10-03T05:24:06.553Z,14.33
2022-10-03T05:26:44.576Z,14.32
2022-10-03T05:28:59.270Z,14.32
2022-10-03T05:31:25.654Z,14.32
2022-10-03T05:33:51.932Z,14.35
2022-10-03T05:36:18.307Z,14.38
2022-10-03T05:38:44.641Z,14.38
2022-10-03T05:41:10.983Z,14.47
2022-10-03T05:43:37.299Z,14.45
2022-10-03T05:46:03.704Z,14.43
2022-10-03T05:48:29.957Z,14.40
2022-10-03T05:50:56.314Z,14.40
2022-10-03T05:53:22.671Z,14.44
2022-10-03T05:55:48.992Z,14.49
2022-10-03T05:58:15.326Z,14.53
2022-10-03T06:00:41.656Z,14.58
2022-10-03T06:03:08.106Z,14.61
2022-10-03T06:05:34.399Z,14.64
2022-10-03T06:08:00.726Z,14.69
2022-10-03T06:10:27.037Z,14.72
2022-10-03T06:12:53.377Z,14.75
2022-10-03T06:15:19.908Z,14.83
2022-10-03T06:17:46.245Z,15.12
2022-10-03T06:20:12.595Z,15.32
2022-10-03T06:22:38.954Z,15.52
2022-10-03T06:25:05.319Z,15.60
2022-10-03T06:27:31.631Z,15.72
2022-10-03T06:29:57.990Z,15.73
2022-10-03T06:32:24.328Z,15.69
2022-10-03T06:34:50.645Z,15.61
2022-10-03T06:37:16.970Z,15.58
2022-10-03T06:39:43.306Z,15.55
2022-10-03T06:42:09.647Z,15.56
2022-10-03T06:44:35.982Z,15.55
2022-10-03T06:47:02.354Z,15.55
2022-10-03T06:49:28.670Z,15.52
2022-10-03T06:51:55.005Z,15.53
2022-10-03T06:54:21.365Z,15.54
2022-10-03T06:56:50.081Z,15.56
2022-10-03T06:59:14.053Z,15.58
2022-10-03T07:01:40.754Z,15.59
2022-10-03T07:04:06.757Z,15.56
2022-10-03T07:06:33.050Z,15.54
2022-10-03T07:08:59.422Z,15.50
2022-10-03T07:11:25.756Z,15.45
2022-10-03T07:13:52.080Z,15.40
2022-10-03T07:16:26.907Z,15.37
2022-10-03T07:18:44.764Z,15.35
2022-10-03T07:21:14.798Z,15.30
2022-10-03T07:23:37.556Z,15.28
2022-10-03T07:26:03.894Z,15.24
2022-10-03T07:28:30.442Z,15.21
2022-10-03T07:30:56.627Z,15.17
2022-10-03T07:33:23.027Z,15.13
2022-10-03T07:35:49.280Z,15.11
2022-10-03T07:38:15.596Z,15.11
2022-10-03T07:40:41.935Z,15.11
2022-10-03T07:43:08.278Z,15.12
2022-10-03T07:45:34.693Z,15.14
2022-10-03T07:48:00.988Z,15.16
2022-10-03T07:50:27.323Z,15.14
2022-10-03T07:52:53.676Z,15.12
2022-10-03T07:55:19.997Z,15.11
2022-10-03T07:57:46.340Z,15.08
2022-10-03T08:00:12.681Z,15.05
2022-10-03T08:02:39.144Z,15.03
2022-10-03T08:05:05.318Z,15.03
2022-10-03T08:07:31.670Z,15.02
2022-10-03T08:09:57.983Z,15.05
2022-10-03T08:12:24.308Z,15.06
2022-10-03T08:14:50.648Z,15.07
2022-10-03T08:17:16.970Z,15.08
2022-10-03T08:19:43.292Z,15.11
2022-10-03T08:22:09.630Z,15.11
2022-10-03T08:24:35.956Z,15.12
2022-10-03T08:27:02.300Z,15.15
2022-10-03T08:29:28.633Z,15.18
2022-10-03T08:31:54.957Z,15.21
2022-10-03T08:34:21.292Z,15.23
2022-10-03T08:36:47.633Z,15.26
2022-10-03T08:39:13.986Z,15.29
2022-10-03T08:41:40.515Z,15.35
2022-10-03T08:44:06.649Z,15.39
2022-10-03T08:46:33.027Z,15.43
2022-10-03T08:48:59.322Z,15.47
2022-10-03T08:51:25.667Z,15.49
2022-10-03T08:53:51.979Z,15.54
2022-10-03T08:56:18.321Z,15.58
2022-10-03T08:58:44.653Z,15.63
2022-10-03T09:01:11.015Z,15.68
2022-10-03T09:03:42.084Z,15.71
2022-10-03T09:06:03.673Z,15.76
2022-10-03T09:08:29.977Z,15.84
2022-10-03T09:10:56.301Z,15.93
2022-10-03T09:13:22.632Z,16.01
2022-10-03T09:15:49.015Z,16.05
2022-10-03T09:18:15.286Z,16.10
2022-10-03T09:20:41.639Z,16.19
2022-10-03T09:23:07.966Z,16.27
2022-10-03T09:25:34.297Z,16.35
2022-10-03T09:28:00.665Z,16.39
2022-10-03T09:30:26.955Z,16.41
2022-10-03T09:32:53.258Z,16.42
2022-10-03T09:35:19.847Z,16.42
2022-10-03T09:37:46.174Z,16.45
2022-10-03T09:40:12.532Z,16.50
2022-10-03T09:42:38.877Z,16.64
2022-10-03T09:45:05.267Z,16.91
2022-10-03T09:47:31.572Z,17.12
2022-10-03T09:49:57.890Z,17.23
2022-10-03T09:52:24.237Z,17.25
2022-10-03T09:54:50.569Z,17.22
2022-10-03T09:57:22.046Z,17.19
2022-10-03T09:59:43.240Z,17.25
2022-10-03T10:02:09.606Z,17.56
2022-10-03T10:04:53.541Z,18.16
2022-10-03T10:07:02.295Z,18.71
2022-10-03T10:09:28.662Z,19.00
2022-10-03T10:11:54.983Z,19.05
2022-10-03T10:14:21.302Z,19.00
2022-10-03T10:16:48.595Z,18.88
2022-10-03T10:19:14.002Z,18.75
2022-10-03T10:21:40.323Z,18.67
2022-10-03T10:24:06.679Z,18.59
2022-10-03T10:26:33.011Z,18.52
2022-10-03T10:28:59.332Z,18.48
2022-10-03T10:31:25.719Z,18.45
2022-10-03T10:33:51.972Z,18.48
2022-10-03T10:36:18.274Z,18.50
2022-10-03T10:38:44.646Z,18.51
2022-10-03T10:41:10.991Z,18.51
2022-10-03T10:43:37.321Z,18.51
2022-10-03T10:46:03.646Z,18.53
2022-10-03T10:48:29.982Z,18.60
2022-10-03T10:50:56.315Z,18.65
2022-10-03T10:53:22.637Z,18.69
2022-10-03T10:55:48.973Z,18.75
2022-10-03T10:58:15.333Z,18.88
2022-10-03T11:00:41.671Z,19.07
2022-10-03T11:03:07.961Z,19.27
2022-10-03T11:05:34.305Z,19.46
2022-10-03T11:08:00.625Z,19.82
2022-10-03T11:10:26.940Z,19.95
2022-10-03T11:12:53.328Z,20.08
2022-10-03T11:15:19.629Z,20.16
2022-10-03T11:17:45.965Z,20.10
2022-10-03T11:20:12.314Z,19.95
2022-10-03T11:22:38.648Z,19.78
2022-10-03T11:25:04.982Z,19.65
2022-10-03T11:27:31.346Z,19.65
2022-10-03T11:29:57.644Z,19.64
2022-10-03T11:32:23.977Z,19.84
2022-10-03T11:34:50.303Z,19.99
2022-10-03T11:37:16.663Z,20.04
2022-10-03T11:39:43.033Z,19.95
2022-10-03T11:42:09.356Z,19.80
2022-10-03T11:44:35.673Z,19.71
2022-10-03T11:47:02.052Z,19.85
2022-10-03T11:49:28.463Z,20.01
2022-10-03T11:51:54.781Z,20.29
2022-10-03T11:54:31.029Z,20.33
2022-10-03T11:56:47.489Z,20.28
2022-10-03T11:59:13.913Z,20.14
2022-10-03T12:01:40.568Z,19.99
2022-10-03T12:04:06.621Z,20.01
2022-10-03T12:06:32.933Z,20.01
2022-10-03T12:08:59.256Z,20.05
2022-10-03T12:11:25.620Z,20.10
2022-10-03T12:13:51.950Z,20.30
2022-10-03T12:16:18.329Z,20.54
2022-10-03T12:18:44.645Z,20.76
2022-10-03T12:21:10.973Z,21.02
2022-10-03T12:23:37.298Z,21.23
2022-10-03T12:26:03.680Z,21.39
2022-10-03T12:28:30.035Z,21.51
2022-10-03T12:30:56.315Z,21.63
2022-10-03T12:33:22.690Z,21.67
2022-10-03T12:35:49.026Z,21.69
2022-10-03T12:38:15.360Z,21.69
2022-10-03T12:40:41.683Z,21.74
2022-10-03T12:43:08.001Z,21.79
2022-10-03T12:45:34.363Z,21.76
2022-10-03T12:48:00.663Z,21.74
2022-10-03T12:50:27.004Z,21.68
2022-10-03T12:52:53.342Z,21.60
2022-10-03T12:55:19.675Z,21.55
2022-10-03T12:57:45.978Z,21.48
2022-10-03T13:00:12.300Z,21.41
2022-10-03T13:02:38.751Z,21.40
2022-10-03T13:05:05.020Z,21.37
2022-10-03T13:07:31.342Z,21.31
2022-10-03T13:09:57.715Z,21.19
2022-10-03T13:12:27.694Z,21.05
2022-10-03T13:14:50.373Z,20.96
2022-10-03T13:17:16.714Z,20.84
2022-10-03T13:19:43.058Z,20.69
2022-10-03T13:22:10.404Z,20.54
2022-10-03T13:24:36.766Z,20.41
2022-10-03T13:27:03.082Z,20.33
2022-10-03T13:29:29.425Z,20.29
2022-10-03T13:31:55.766Z,20.23
2022-10-03T13:34:22.100Z,20.19
2022-10-03T13:36:48.415Z,20.15
2022-10-03T13:39:14.747Z,20.11
2022-10-03T13:41:41.516Z,20.04
2022-10-03T13:44:07.413Z,19.98
2022-10-03T13:46:33.868Z,19.92
2022-10-03T13:49:02.179Z,19.85
2022-10-03T13:51:26.459Z,19.77
2022-10-03T13:53:52.780Z,19.71
2022-10-03T13:56:19.090Z,19.64
2022-10-03T13:58:45.444Z,19.59
2022-10-03T14:01:11.826Z,19.53
2022-10-03T14:03:38.149Z,19.44
2022-10-03T14:06:04.463Z,19.39
2022-10-03T14:08:30.800Z,19.34
2022-10-03T14:10:57.134Z,19.29
2022-10-03T14:13:23.510Z,19.24
2022-10-03T14:15:49.929Z,19.21
2022-10-03T14:18:16.208Z,19.14
2022-10-03T14:20:42.510Z,19.04
2022-10-03T14:23:08.826Z,19.01
2022-10-03T14:25:35.185Z,18.98
2022-10-03T14:28:01.619Z,18.94
2022-10-03T14:30:27.838Z,18.91
2022-10-03T14:32:54.260Z,18.88
2022-10-03T14:35:20.529Z,18.84
2022-10-03T14:37:46.862Z,18.79
2022-10-03T14:40:13.180Z,18.72
2022-10-03T14:42:39.481Z,18.65
2022-10-03T14:45:05.815Z,18.58
2022-10-03T14:47:32.143Z,18.51
2022-10-03T14:49:59.751Z,18.46
2022-10-03T14:52:24.824Z,18.44
2022-10-03T14:54:51.135Z,18.40
2022-10-03T14:57:17.455Z,18.37
2022-10-03T14:59:43.806Z,18.30
2022-10-03T15:02:10.196Z,18.21
2022-10-03T15:04:36.466Z,18.14
2022-10-03T15:07:02.781Z,18.08
2022-10-03T15:09:29.167Z,18.06
2022-10-03T15:11:55.487Z,18.02
2022-10-03T15:14:21.831Z,18.01
2022-10-03T15:16:48.186Z,17.99
2022-10-03T15:19:14.507Z,17.97
2022-10-03T15:21:41.107Z,17.95
2022-10-03T15:24:07.220Z,17.93
2022-10-03T15:26:33.522Z,17.92
2022-10-03T15:28:59.865Z,17.91
2022-10-03T15:31:26.267Z,17.87
2022-10-03T15:33:52.593Z,17.82
2022-10-03T15:36:18.927Z,17.76
2022-10-03T15:38:45.254Z,17.72
2022-10-03T15:41:11.599Z,17.67
2022-10-03T15:43:37.949Z,17.64
2022-10-03T15:46:04.356Z,17.62
2022-10-03T15:48:30.619Z,17.59
2022-10-03T15:50:56.998Z,17.57
2022-10-03T15:53:38.345Z,17.52
2022-10-03T15:55:49.644Z,17.45
2022-10-03T15:58:15.999Z,17.39
2022-10-03T16:00:42.356Z,17.33
2022-10-03T16:03:08.654Z,17.30
2022-10-03T16:05:34.969Z,17.27
2022-10-03T16:08:01.297Z,17.25
2022-10-03T16:10:27.698Z,17.21
2022-10-03T16:12:54.074Z,17.17
2022-10-03T16:15:20.377Z,17.12
2022-10-03T16:17:46.739Z,17.09
2022-10-03T16:20:13.087Z,17.06
2022-10-03T16:22:39.713Z,17.03
2022-10-03T16:25:06.083Z,17.01
2022-10-03T16:27:32.411Z,16.98
2022-10-03T16:29:58.748Z,16.95
2022-10-03T16:32:25.070Z,16.92
2022-10-03T16:34:51.397Z,16.90
2022-10-03T16:37:17.727Z,16.89
2022-10-03T16:39:46.436Z,16.88
2022-10-03T16:42:10.406Z,16.87
2022-10-03T16:44:36.783Z,16.87
2022-10-03T16:47:03.163Z,16.85
2022-10-03T16:49:29.482Z,16.83
2022-10-03T16:51:55.809Z,16.81
2022-10-03T16:54:22.186Z,16.78
2022-10-03T16:56:48.508Z,16.75
2022-10-03T16:59:14.844Z,16.73
2022-10-03T17:01:41.583Z,16.72
2022-10-03T17:04:07.555Z,16.70
2022-10-03T17:06:33.877Z,16.67
2022-10-03T17:09:00.227Z,16.69
2022-10-03T17:11:26.547Z,16.66
2022-10-03T17:13:52.897Z,16.62
2022-10-03T17:16:19.327Z,16.59
2022-10-03T17:18:45.614Z,16.57
2022-10-03T17:21:11.935Z,16.56
2022-10-03T17:23:38.307Z,16.55
2022-10-03T17:26:04.647Z,16.55
2022-10-03T17:28:31.042Z,16.54
2022-10-03T17:30:57.317Z,16.50
2022-10-03T17:33:23.651Z,16.48
2022-10-03T17:35:49.976Z,16.45
2022-10-03T17:38:44.461Z,16.41
2022-10-03T17:40:42.658Z,16.39
2022-10-03T17:43:08.993Z,16.37
2022-10-03T17:45:35.399Z,16.32
2022-10-03T17:48:01.656Z,16.29
2022-10-03T17:50:27.970Z,16.28
2022-10-03T17:52:54.322Z,16.26
2022-10-03T17:55:20.646Z,16.24
2022-10-03T17:57:46.984Z,16.19
2022-10-03T18:00:13.340Z,16.10
2022-10-03T18:02:39.729Z,16.12
2022-10-03T18:05:05.976Z,16.13
2022-10-03T18:07:32.299Z,16.12
2022-10-03T18:09:58.697Z,16.11
2022-10-03T18:12:25.004Z,16.06
2022-10-03T18:14:51.326Z,16.02
2022-10-03T18:17:17.680Z,15.98
2022-10-03T18:19:44.048Z,15.91
2022-10-03T18:22:10.388Z,15.85
2022-10-03T18:24:36.707Z,15.86
2022-10-03T18:27:03.067Z,15.81
2022-10-03T18:29:29.393Z,15.79
2022-10-03T18:31:55.824Z,15.77
2022-10-03T18:34:22.068Z,15.74
2022-10-03T18:36:48.404Z,15.73
2022-10-03T18:39:14.733Z,15.69
2022-10-03T18:41:41.263Z,15.70
2022-10-03T18:44:07.403Z,15.72
2022-10-03T18:46:33.763Z,15.69
2022-10-03T18:51:26.440Z,15.67
2022-10-03T18:53:52.782Z,15.63
2022-10-03T18:56:19.103Z,15.60
2022-10-03T18:58:45.426Z,15.59
2022-10-03T19:01:11.865Z,15.59
2022-10-03T19:03:38.108Z,15.58
2022-10-03T19:06:04.443Z,15.55
2022-10-03T19:08:30.881Z,15.53
2022-10-03T19:10:57.129Z,15.49
2022-10-03T19:13:23.450Z,15.49
2022-10-03T19:15:49.784Z,15.47
2022-10-03T19:18:16.142Z,15.43
2022-10-03T19:20:42.445Z,15.40
2022-10-03T19:23:08.795Z,15.40
2022-10-03T19:25:35.108Z,15.39
2022-10-03T19:28:01.572Z,15.38
2022-10-03T19:30:27.795Z,15.37
2022-10-03T19:32:54.115Z,15.34
2022-10-03T19:35:20.465Z,15.30
2022-10-03T19:37:46.809Z,15.26
2022-10-03T19:40:13.151Z,15.25
2022-10-03T19:42:39.476Z,15.23
2022-10-03T19:45:05.799Z,15.19
2022-10-03T19:47:32.144Z,15.17
2022-10-03T19:49:58.489Z,15.08
2022-10-03T19:52:24.830Z,15.03
2022-10-03T19:54:51.147Z,14.97
2022-10-03T19:57:17.485Z,14.92
2022-10-03T19:59:43.826Z,14.96
2022-10-03T20:02:10.191Z,15.01
2022-10-03T20:04:37.037Z,15.02
2022-10-03T20:07:02.834Z,14.98
2022-10-03T20:09:29.177Z,15.01
2022-10-03T20:11:55.517Z,15.01
2022-10-03T20:14:21.889Z,14.96
2022-10-03T20:16:48.308Z,14.95
2022-10-03T20:19:14.566Z,14.89
2022-10-03T20:21:41.161Z,14.86
2022-10-03T20:24:07.276Z,14.79
2022-10-03T20:26:33.592Z,14.79
2022-10-03T20:28:59.947Z,14.79
2022-10-03T20:31:26.304Z,14.76
2022-10-03T20:33:52.584Z,14.73
2022-10-03T20:36:18.976Z,14.67
2022-10-03T20:38:45.316Z,14.64
2022-10-03T20:41:11.639Z,14.61
2022-10-03T20:43:41.554Z,14.56
2022-10-03T20:46:04.349Z,14.52
2022-10-03T20:48:30.663Z,14.53
2022-10-03T20:50:56.983Z,14.51
2022-10-03T20:53:23.327Z,14.48
2022-10-03T20:55:49.650Z,14.48
2022-10-03T20:58:15.993Z,14.44
2022-10-03T21:00:42.353Z,14.43
2022-10-03T21:03:08.637Z,14.41
2022-10-03T21:05:35.021Z,14.42
2022-10-03T21:08:01.298Z,14.39
2022-10-03T21:10:27.624Z,14.35
2022-10-03T21:12:53.966Z,14.36
2022-10-03T21:15:20.307Z,14.36
2022-10-03T21:17:46.625Z,14.31
2022-10-03T21:20:12.952Z,14.28
2022-10-03T21:22:39.286Z,14.24
2022-10-03T21:25:05.631Z,14.17
2022-10-03T21:27:31.962Z,14.15
2022-10-03T21:29:58.285Z,14.09
2022-10-03T21:32:24.616Z,14.04
2022-10-03T21:34:50.975Z,14.03
2022-10-03T21:37:17.291Z,14.03
2022-10-03T21:39:43.632Z,14.04
2022-10-03T21:42:09.948Z,14.07
2022-10-03T21:44:36.331Z,14.06
2022-10-03T21:47:02.682Z,14.05
2022-10-03T21:49:29.024Z,14.00
2022-10-03T21:51:55.340Z,14.00
2022-10-03T21:54:21.690Z,13.97
2022-10-03T21:56:48.010Z,13.91
2022-10-03T21:59:14.356Z,13.89
2022-10-03T22:01:40.990Z,13.86
2022-10-03T22:04:07.017Z,13.86
2022-10-03T22:06:33.358Z,13.83
2022-10-03T22:08:59.679Z,13.92
2022-10-03T22:11:26.053Z,13.89
2022-10-03T22:13:52.396Z,13.93
2022-10-03T22:16:18.757Z,13.99
2022-10-03T22:18:45.059Z,14.01
2022-10-03T22:21:11.401Z,14.04
2022-10-03T22:23:37.741Z,14.01
2022-10-03T22:26:04.057Z,14.06
2022-10-03T22:28:30.411Z,14.09
2022-10-03T22:30:56.747Z,14.05
2022-10-03T22:33:23.063Z,14.03
2022-10-03T22:35:49.380Z,13.98
2022-10-03T22:38:15.702Z,13.97
2022-10-03T22:40:42.024Z,13.99
2022-10-03T22:43:08.349Z,14.02
2022-10-03T22:45:34.667Z,13.98
2022-10-03T22:48:01.059Z,14.00
2022-10-03T22:50:27.394Z,14.07
2022-10-03T22:52:53.735Z,14.09
2022-10-03T22:55:20.069Z,14.08
2022-10-03T22:57:46.382Z,14.06
2022-10-03T23:00:12.749Z,14.09
2022-10-03T23:02:39.154Z,14.09
2022-10-03T23:05:05.427Z,14.05
2022-10-03T23:07:31.814Z,14.01
2022-10-03T23:09:58.131Z,14.02
2022-10-03T23:12:24.490Z,14.03
2022-10-03T23:14:50.817Z,13.98
2022-10-03T23:17:17.161Z,13.95
2022-10-03T23:19:43.474Z,13.92
2022-10-03T23:22:09.834Z,13.90
2022-10-03T23:24:36.146Z,13.89
2022-10-03T23:27:02.491Z,13.87
2022-10-03T23:29:28.829Z,13.89
2022-10-03T23:31:55.190Z,13.86
2022-10-03T23:34:21.539Z,13.87
2022-10-03T23:36:47.881Z,13.87
2022-10-03T23:39:14.290Z,13.88
2022-10-03T23:41:40.660Z,13.93
2022-10-03T23:44:06.883Z,13.93
2022-10-03T23:46:33.248Z,13.94
2022-10-03T23:48:59.551Z,13.94
2022-10-03T23:51:25.934Z,13.91
2022-10-03T23:53:52.249Z,13.88
2022-10-03T23:56:18.585Z,13.84
2022-10-03T23:58:45.206Z,13.82
